Time;durP1;ratioP1;P1;durP2;ratioP2;P2;SDS_P1;SDS_P2;PMS_P1;PMS_P2;Temp;Humidity;BMP_temperature;BMP_pressure;BME280_temperature;BME280_humidity;BME280_pressure;Samples;Min_cycle;Max_cycle;Signal;HPM_P1;HPM_P2
2022/09/05 00:00:18;;;;;;;6.55;6.05;;;;;;;18.21;100.00;101513.69;6140729;23;20025;-76
2022/09/05 00:02:56;;;;;;;6.20;5.80;;;;;;;18.49;100.00;101564.88;6092014;23;20028;-75
2022/09/05 00:05:39;;;;;;;6.22;5.82;;;;;;;18.16;100.00;101515.81;6137312;23;20031;-76
2022/09/05 00:08:38;;;;;;;5.88;5.57;;;;;;;18.49;100.00;101559.56;6101760;23;20134;-77
2022/09/05 00:11:20;;;;;;;7.07;6.68;;;;;;;18.19;100.00;101523.56;6125130;23;20019;-76
2022/09/05 00:14:35;;;;;;;6.13;5.83;;;;;;;17.97;100.00;101489.72;6085371;23;20071;-75
2022/09/05 00:17:56;;;;;;;6.20;5.80;;;;;;;18.13;100.00;101522.19;6118681;23;20603;-76
2022/09/05 00:21:08;;;;;;;6.10;5.78;;;;;;;18.32;100.00;101564.28;6102631;23;20017;-76
2022/09/05 00:24:19;;;;;;;7.57;7.18;;;;;;;18.25;100.00;101570.13;6133571;23;20018;-73
2022/09/05 00:27:27;;;;;;;7.43;6.95;;;;;;;18.18;100.00;101559.09;6081763;23;20025;-76
2022/09/05 00:30:06;;;;;;;6.10;5.70;;;;;;;18.13;100.00;101558.56;6129024;23;20116;-74
2022/09/05 00:33:22;;;;;;;7.32;6.82;;;;;;;18.00;100.00;101537.31;6045926;23;20007;-76
2022/09/05 00:35:48;;;;;;;7.30;6.80;;;;;;;18.05;100.00;101552.94;6113590;23;20407;-75
2022/09/05 00:38:25;;;;;;;6.60;6.20;;;;;;;17.99;100.00;101554.19;6091753;23;20016;-77
2022/09/05 00:41:11;;;;;;;7.75;7.28;;;;;;;17.94;100.00;101554.53;6083084;23;20080;-75
2022/09/05 00:43:41;;;;;;;5.82;5.43;;;;;;;17.77;100.00;101532.72;6118731;23;20032;-74
2022/09/05 00:46:15;;;;;;;6.32;5.97;;;;;;;17.84;100.00;101548.16;6080798;23;20010;-76
2022/09/05 00:48:41;;;;;;;6.10;5.78;;;;;;;17.83;100.00;101548.22;6115765;23;20038;-73
2022/09/05 00:51:26;;;;;;;5.82;5.50;;;;;;;17.77;100.00;101541.53;6078560;23;20014;-76
2022/09/05 00:54:37;;;;;;;7.30;6.90;;;;;;;17.68;100.00;101547.47;6111679;23;20036;-76
2022/09/05 00:57:45;;;;;;;6.40;6.00;;;;;;;17.50;100.00;101539.81;6090865;23;20577;-74
2022/09/05 01:00:18;;;;;;;6.70;6.30;;;;;;;17.34;100.00;101520.59;6106512;23;20469;-74
2022/09/05 01:03:08;;;;;;;6.13;5.72;;;;;;;17.44;100.00;101550.88;6075075;23;20076;-74
2022/09/05 01:05:43;;;;;;;6.30;5.90;;;;;;;17.41;100.00;101550.22;6123156;23;20026;-76
2022/09/05 01:08:41;;;;;;;6.78;6.28;;;;;;;17.22;100.00;101524.94;6055371;23;20094;-77
2022/09/05 01:11:27;;;;;;;6.43;6.03;;;;;;;16.95;100.00;101488.66;6114886;23;20028;-77
2022/09/05 01:13:59;;;;;;;7.93;7.45;;;;;;;17.28;100.00;101535.13;6060429;23;20082;-78
2022/09/05 01:17:04;;;;;;;7.07;6.57;;;;;;;17.33;100.00;101550.72;6118826;23;20082;-78
2022/09/05 01:19:50;;;;;;;9.23;6.28;;;;;;;16.24;100.00;101364.41;6081421;23;20147;-75
2022/09/05 01:22:58;;;;;;;6.57;6.18;;;;;;;17.40;100.00;101546.72;6124554;23;20116;-78
2022/09/05 01:25:50;;;;;;;6.35;5.95;;;;;;;16.67;100.00;101449.84;6059862;23;20029;-77
2022/09/05 01:28:39;;;;;;;6.50;6.00;;;;;;;17.28;100.00;101544.84;6108146;23;20017;-77
2022/09/05 01:31:38;;;;;;;15.52;5.93;;;;;;;17.06;100.00;101525.09;6084088;23;20025;-78
2022/09/05 01:34:25;;;;;;;6.57;6.18;;;;;;;17.20;100.00;101553.34;6110978;23;20347;-72
2022/09/05 01:37:12;;;;;;;7.85;7.45;;;;;;;17.19;100.00;101548.16;6058270;23;20086;-76
2022/09/05 01:40:18;;;;;;;8.25;7.72;;;;;;;17.15;100.00;101545.69;6109738;23;20013;-75
2022/09/05 01:43:09;;;;;;;6.22;5.82;;;;;;;17.13;100.00;101542.28;6082435;23;20010;-75
2022/09/05 01:45:54;;;;;;;6.85;6.10;;;;;;;17.08;100.00;101544.41;6129528;23;20029;-76
2022/09/05 01:48:46;;;;;;;5.90;5.57;;;;;;;17.03;100.00;101543.84;6083313;23;20039;-76
2022/09/05 01:51:28;;;;;;;6.55;6.15;;;;;;;16.59;100.00;101475.16;6102515;23;20045;-74
2022/09/05 01:54:23;;;;;;;7.32;6.93;;;;;;;16.96;100.00;101534.63;6083998;23;20605;-76
2022/09/05 01:57:14;;;;;;;7.50;7.00;;;;;;;16.41;100.00;101519.59;6111460;23;20536;-76
2022/09/05 01:59:54;;;;;;;5.97;5.57;;;;;;;16.74;100.00;101514.78;6102412;23;20055;-75
2022/09/05 02:02:47;;;;;;;6.43;5.93;;;;;;;16.81;100.00;101531.16;6124113;23;20033;-74
2022/09/05 02:05:26;;;;;;;6.25;5.85;;;;;;;16.79;100.00;101530.38;6092769;23;20024;-76
2022/09/05 02:08:22;;;;;;;7.53;7.13;;;;;;;16.77;100.00;101532.25;6115961;23;20910;-77
2022/09/05 02:11:09;;;;;;;7.10;6.65;;;;;;;16.74;100.00;101541.28;6084816;23;20086;-75
2022/09/05 02:13:35;;;;;;;5.70;5.30;;;;;;;16.73;100.00;101531.59;6126291;23;20019;-76
2022/09/05 02:16:01;;;;;;;7.30;6.88;;;;;;;16.70;100.00;101533.63;6101459;23;20018;-75
2022/09/05 02:18:58;;;;;;;6.10;5.60;;;;;;;16.71;100.00;101530.00;6101623;23;20789;-75
2022/09/05 02:21:34;;;;;;;5.85;5.55;;;;;;;16.64;100.00;101528.72;6092691;23;20061;-75
2022/09/05 02:24:35;;;;;;;6.03;5.63;;;;;;;16.55;100.00;101514.25;6113247;23;20453;-76
2022/09/05 02:27:04;;;;;;;7.07;6.68;;;;;;;16.62;100.00;101536.78;6089487;18;20030;-74
2022/09/05 02:30:07;;;;;;;6.18;5.72;;;;;;;16.58;100.00;101534.41;6038596;23;20094;-73
2022/09/05 02:32:52;;;;;;;5.65;5.30;;;;;;;16.53;100.00;101537.34;6012351;23;20018;-74
2022/09/05 02:35:29;;;;;;;6.03;5.68;;;;;;;16.35;100.00;101513.72;6021809;23;20038;-74
2022/09/05 02:38:17;;;;;;;7.10;6.70;;;;;;;16.40;100.00;101520.53;6037206;23;20012;-73
2022/09/05 02:41:19;;;;;;;7.03;6.57;;;;;;;16.55;100.00;101520.41;5991343;23;20029;-74
2022/09/05 02:44:40;;;;;;;5.50;5.20;;;;;;;16.53;100.00;101526.75;6022784;23;20029;-74
2022/09/05 02:47:39;;;;;;;6.40;5.93;;;;;;;15.85;100.00;101427.72;5995852;23;20014;-74
2022/09/05 02:50:30;;;;;;;6.60;6.20;;;;;;;16.46;100.00;101546.66;6040670;23;20015;-74
2022/09/05 02:53:19;;;;;;;5.97;5.57;;;;;;;16.47;100.00;101537.75;6016678;23;20015;-74
2022/09/05 02:56:27;;;;;;;6.22;5.82;;;;;;;16.50;100.00;101529.63;6048558;23;20966;-72
2022/09/05 02:59:52;;;;;;;6.47;5.97;;;;;;;16.51;100.00;101536.59;6037002;23;20710;-73
2022/09/05 03:03:06;;;;;;;5.40;5.10;;;;;;;16.51;100.00;101533.94;6032351;23;20078;-74
2022/09/05 03:06:06;;;;;;;6.18;5.72;;;;;;;16.04;100.00;101461.03;5992524;23;20038;-73
2022/09/05 03:09:09;;;;;;;5.60;5.30;;;;;;;16.47;100.00;101527.16;6061689;23;20030;-74
2022/09/05 03:12:01;;;;;;;5.97;5.68;;;;;;;16.43;100.00;101530.94;6038859;23;20010;-73
2022/09/05 03:15:06;;;;;;;6.15;5.80;;;;;;;16.41;100.00;101528.38;6054034;23;20153;-73
2022/09/05 03:18:17;;;;;;;5.68;5.28;;;;;;;15.68;100.00;101412.88;6024336;23;20033;-74
2022/09/05 03:21:17;;;;;;;5.50;5.20;;;;;;;16.31;100.00;101530.75;6049583;23;20018;-74
2022/09/05 03:23:52;;;;;;;6.45;6.05;;;;;;;16.28;100.00;101528.31;6054074;23;20018;-73
2022/09/05 03:26:57;;;;;;;5.72;5.43;;;;;;;16.26;100.00;101524.91;6058472;23;20460;-73
2022/09/05 03:30:00;;;;;;;5.45;5.15;;;;;;;16.20;100.00;101525.31;6019839;23;20104;-74
2022/09/05 03:32:47;;;;;;;5.80;5.50;;;;;;;15.77;100.00;101464.41;6027795;23;20078;-74
2022/09/05 03:35:51;;;;;;;5.40;5.10;;;;;;;16.11;100.00;101526.72;6023993;23;20053;-74
2022/09/05 03:39:02;;;;;;;5.70;5.40;;;;;;;16.00;100.00;101513.31;6013414;23;20018;-72
2022/09/05 03:41:59;;;;;;;5.65;5.28;;;;;;;15.87;100.00;101515.00;6019474;23;20011;-74
2022/09/05 03:45:03;;;;;;;5.85;5.47;;;;;;;15.46;100.00;101436.34;6004116;23;20235;-73
2022/09/05 03:48:16;;;;;;;5.53;5.13;;;;;;;15.97;100.00;101545.25;5968351;23;20079;-73
2022/09/05 03:50:54;;;;;;;6.57;6.28;;;;;;;15.95;100.00;101524.16;5989425;23;20027;-74
2022/09/05 03:54:06;;;;;;;5.63;5.32;;;;;;;15.94;100.00;101524.28;6015149;23;20018;-73
2022/09/05 03:57:21;;;;;;;6.40;6.10;;;;;;;15.91;100.00;101520.00;5997440;23;20023;-72
2022/09/05 04:00:29;;;;;;;5.82;5.45;;;;;;;15.88;100.00;101524.66;5945850;23;20014;-71
2022/09/05 04:02:56;;;;;;;7.10;6.65;;;;;;;15.85;100.00;101519.53;6024786;23;20041;-73
2022/09/05 04:05:53;;;;;;;5.45;5.15;;;;;;;15.29;100.00;101448.75;6022813;23;20018;-72
2022/09/05 04:09:13;;;;;;;6.07;5.68;;;;;;;15.42;100.00;101461.28;6011555;23;20030;-72
2022/09/05 04:12:09;;;;;;;6.60;6.28;;;;;;;15.26;100.00;101464.81;5970975;23;20035;-72
2022/09/05 04:14:53;;;;;;;5.60;5.30;;;;;;;15.46;100.00;101486.59;6002083;23;20030;-73
2022/09/05 04:17:49;;;;;;;6.68;6.05;;;;;;;15.41;100.00;101481.56;5999442;23;20012;-73
2022/09/05 04:20:41;;;;;;;5.95;5.43;;;;;;;15.69;100.00;101531.00;6015386;23;20559;-72
2022/09/05 04:23:32;;;;;;;5.90;5.60;;;;;;;15.68;100.00;101523.19;6027165;23;20022;-73
2022/09/05 04:26:47;;;;;;;7.38;6.90;;;;;;;15.50;100.00;101488.94;6024579;23;20368;-72
2022/09/05 04:29:21;;;;;;;6.55;6.05;;;;;;;15.66;100.00;101525.06;6040669;23;20061;-72
2022/09/05 04:31:55;;;;;;;6.57;6.07;;;;;;;15.24;100.00;101455.28;6020294;23;20684;-72
2022/09/05 04:34:41;;;;;;;5.68;5.25;;;;;;;15.63;100.00;101528.72;6034217;23;20045;-73
2022/09/05 04:37:09;;;;;;;5.63;5.32;;;;;;;14.92;100.00;101415.75;6045675;23;20090;-72
2022/09/05 04:39:36;;;;;;;6.03;5.63;;;;;;;15.14;100.00;101454.97;6058893;23;20098;-72
2022/09/05 04:42:06;;;;;;;5.93;5.53;;;;;;;15.59;100.00;101526.38;6013924;23;20093;-73
2022/09/05 04:44:51;;;;;;;6.00;5.60;;;;;;;14.70;100.00;101369.44;6058772;23;20085;-73
2022/09/05 04:47:29;;;;;;;6.05;5.55;;;;;;;15.39;100.00;101472.03;5995124;23;20323;-72
2022/09/05 04:50:19;;;;;;;8.02;7.25;;;;;;;14.78;100.00;101376.91;6029730;23;20073;-72
2022/09/05 04:53:01;;;;;;;6.22;5.82;;;;;;;15.62;100.00;101520.91;6043896;23;20030;-72
2022/09/05 04:55:37;;;;;;;5.75;5.45;;;;;;;14.84;100.00;101404.78;6051494;23;20019;-72
2022/09/05 04:58:30;;;;;;;6.55;6.10;;;;;;;15.55;100.00;101531.88;6027087;23;20535;-71
2022/09/05 05:01:25;;;;;;;6.00;5.60;;;;;;;15.53;100.00;101528.44;6043170;23;20030;-73
2022/09/05 05:04:16;;;;;;;6.43;6.03;;;;;;;15.58;100.00;101528.19;6018344;23;20029;-70
2022/09/05 05:07:18;;;;;;;6.97;6.57;;;;;;;15.61;100.00;101525.34;6043012;23;20617;-74
2022/09/05 05:09:53;;;;;;;5.53;5.23;;;;;;;15.18;100.00;101458.31;6035051;23;20026;-74
2022/09/05 05:13:08;;;;;;;5.57;5.28;;;;;;;15.75;100.00;101532.47;5998638;23;20089;-73
2022/09/05 05:16:17;;;;;;;7.18;6.78;;;;;;;15.83;100.00;101530.22;6051320;23;20510;-72
2022/09/05 05:19:23;;;;;;;6.85;6.45;;;;;;;15.58;100.00;101487.66;6037648;23;20025;-74
2022/09/05 05:21:56;;;;;;;5.57;5.28;;;;;;;15.86;100.00;101530.03;6058265;23;20034;-74
2022/09/05 05:24:29;;;;;;;5.68;5.32;;;;;;;16.03;100.00;101533.44;6015641;23;20027;-73
2022/09/05 05:27:00;;;;;;;9.48;6.45;;;;;;;16.10;100.00;101535.63;6053465;23;20074;-71
2022/09/05 05:29:51;;;;;;;6.25;5.85;;;;;;;16.20;100.00;101525.31;6000010;23;20041;-73
2022/09/05 05:32:29;;;;;;;6.97;6.07;;;;;;;15.49;100.00;101404.38;6022030;23;20023;-69
2022/09/05 05:35:24;;;;;;;6.00;5.70;;;;;;;14.88;100.00;101353.44;6000915;23;20737;-72
2022/09/05 05:38:07;;;;;;;6.63;6.18;;;;;;;15.92;100.00;101463.47;6011167;23;20031;-70
2022/09/05 05:40:43;;;;;;;5.80;5.50;;;;;;;16.42;100.00;101529.25;6022081;23;20031;-72
2022/09/05 05:43:20;;;;;;;6.65;6.05;;;;;;;16.47;100.00;101521.84;6020640;23;20762;-71
2022/09/05 05:45:58;;;;;;;5.60;5.30;;;;;;;16.25;100.00;101475.53;6026222;23;20033;-70
2022/09/05 05:48:36;;;;;;;6.05;5.65;;;;;;;16.70;100.00;101523.03;6009919;23;20031;-73
2022/09/05 05:51:37;;;;;;;7.30;6.80;;;;;;;16.48;100.00;101479.34;6039869;23;20426;-71
2022/09/05 05:54:41;;;;;;;5.43;5.13;;;;;;;16.72;100.00;101505.22;6030449;23;20602;-72
2022/09/05 05:57:31;;;;;;;5.88;5.47;;;;;;;16.60;100.00;101483.03;6013857;23;20026;-71
2022/09/05 06:00:12;;;;;;;7.38;6.97;;;;;;;16.99;100.00;101522.94;6015000;23;20035;-70
2022/09/05 06:03:06;;;;;;;5.63;5.32;;;;;;;16.54;100.00;101441.03;5996787;23;20082;-72
2022/09/05 06:06:30;;;;;;;7.18;6.68;;;;;;;17.11;100.00;101533.56;6020790;23;20022;-72
2022/09/05 06:09:43;;;;;;;7.93;7.45;;;;;;;17.21;100.00;101531.16;6021534;23;20318;-70
2022/09/05 06:13:03;;;;;;;6.32;5.93;;;;;;;17.26;100.00;101530.84;5984012;23;20011;-72
2022/09/05 06:15:53;;;;;;;7.18;6.68;;;;;;;17.36;100.00;101526.66;6003507;23;20080;-70
2022/09/05 06:18:31;;;;;;;6.30;5.90;;;;;;;17.47;100.00;101520.59;5995346;23;20764;-71
2022/09/05 06:21:13;;;;;;;7.55;7.05;;;;;;;17.58;100.00;101517.19;5995639;23;20461;-70
2022/09/05 06:24:18;;;;;;;7.40;6.97;;;;;;;17.74;100.00;101516.06;6018487;23;20029;-71
2022/09/05 06:27:00;;;;;;;6.13;5.63;;;;;;;17.90;100.00;101515.88;6041826;23;20022;-72
2022/09/05 06:29:54;;;;;;;6.43;6.05;;;;;;;18.10;100.00;101513.59;6019225;23;20022;-72
2022/09/05 06:32:42;;;;;;;6.40;5.90;;;;;;;18.34;100.00;101518.97;6058918;23;20741;-70
2022/09/05 06:35:27;;;;;;;6.40;6.00;;;;;;;17.68;100.00;101373.13;6026287;23;20006;-69
2022/09/05 06:38:22;;;;;;;8.30;7.70;;;;;;;18.75;100.00;101509.78;6048307;23;20022;-73
2022/09/05 06:41:15;;;;;;;6.97;6.40;;;;;;;18.96;100.00;101512.69;6055218;23;20027;-71
2022/09/05 06:44:12;;;;;;;6.43;5.95;;;;;;;19.12;100.00;101523.03;6041129;23;20421;-72
2022/09/05 06:46:41;;;;;;;5.72;5.40;;;;;;;19.21;100.00;101513.53;6034207;23;20092;-71
2022/09/05 06:49:33;;;;;;;16.33;15.40;;;;;;;19.20;97.30;101490.53;5997664;23;20470;-71
2022/09/05 06:52:33;;;;;;;6.78;6.38;;;;;;;19.57;96.90;101522.31;5986290;23;21067;-71
2022/09/05 06:55:20;;;;;;;7.22;6.82;;;;;;;19.73;96.34;101526.38;6035587;23;20029;-69
2022/09/05 06:58:31;;;;;;;6.22;5.82;;;;;;;19.88;93.89;101516.31;6028350;23;20022;-70
2022/09/05 07:01:00;;;;;;;7.43;6.97;;;;;;;19.97;93.27;101514.75;6030222;23;20038;-71
2022/09/05 07:03:52;;;;;;;6.50;6.10;;;;;;;20.09;92.70;101524.44;6053183;23;20026;-70
2022/09/05 07:06:40;;;;;;;6.30;5.97;;;;;;;19.46;92.28;101384.72;6047853;23;20025;-70
2022/09/05 07:09:47;;;;;;;6.65;6.10;;;;;;;20.01;90.05;101451.44;6047520;23;20056;-71
2022/09/05 07:12:25;;;;;;;5.82;5.53;;;;;;;20.28;88.13;101489.16;6049340;23;20026;-72
2022/09/05 07:14:58;;;;;;;7.77;7.27;;;;;;;19.85;87.69;101423.34;6052189;23;20021;-71
2022/09/05 07:17:43;;;;;;;5.85;5.55;;;;;;;20.82;86.68;101526.66;6045418;23;20522;-73
2022/09/05 07:20:47;;;;;;;6.15;5.75;;;;;;;20.19;86.32;101393.13;6055995;23;20015;-72
2022/09/05 07:23:35;;;;;;;6.28;5.80;;;;;;;21.11;85.65;101527.75;6028564;23;20590;-73
2022/09/05 07:26:23;;;;;;;6.30;5.90;;;;;;;20.50;83.27;101412.75;6068058;23;20022;-75
2022/09/05 07:29:15;;;;;;;5.90;5.60;;;;;;;21.27;82.35;101508.63;6043029;23;20059;-71
2022/09/05 07:31:50;;;;;;;;;;;;;;;19.56;81.45;101212.59;6053288;23;20038;-73
2022/09/05 07:34:23;;;;;;;5.95;5.65;;;;;;;21.66;81.22;101534.75;6053193;23;19941;-74
2022/09/05 07:37:05;;;;;;;6.85;6.45;;;;;;;21.77;79.86;101528.47;6049017;23;20050;-74
2022/09/05 07:39:58;;;;;;;6.10;5.80;;;;;;;21.82;79.20;101513.72;6028995;23;20034;-74
2022/09/05 07:42:55;;;;;;;6.38;6.07;;;;;;;21.14;77.70;101366.47;6031163;23;20103;-72
2022/09/05 07:45:42;;;;;;;6.03;5.72;;;;;;;22.36;77.37;101553.66;6010188;23;20054;-74
2022/09/05 07:48:27;;;;;;;5.53;5.30;;;;;;;21.88;76.84;101433.03;6006205;23;20432;-74
2022/09/05 07:51:05;;;;;;;7.25;6.75;;;;;;;22.38;75.35;101491.00;6041728;23;20030;-72
2022/09/05 07:53:56;;;;;;;7.30;6.90;;;;;;;22.84;74.23;101534.16;6049192;23;20018;-73
2022/09/05 07:56:53;;;;;;;6.07;5.78;;;;;;;22.03;73.87;101368.47;6051045;23;20509;-73
2022/09/05 07:59:45;;;;;;;6.25;5.85;;;;;;;23.04;72.27;101503.78;6051018;23;20044;-74
2022/09/05 08:02:12;;;;;;;;;;;;;;;23.27;70.70;101528.44;6023436;23;20531;-74
2022/09/05 08:04:40;;;;;;;6.03;5.63;;;;;;;23.26;70.33;101536.59;6056555;23;19920;-72
2022/09/05 08:07:11;;;;;;;7.13;6.47;;;;;;;23.46;70.51;101530.22;6025922;23;20021;-74
2022/09/05 08:10:22;;;;;;;7.13;6.72;;;;;;;23.42;68.79;101511.91;6053492;23;20029;-73
2022/09/05 08:13:10;;;;;;;6.07;5.70;;;;;;;23.77;69.41;101524.66;6047412;23;20015;-74
2022/09/05 08:15:55;;;;;;;7.05;6.65;;;;;;;23.79;68.04;101490.50;6049640;23;20125;-74
2022/09/05 08:18:55;;;;;;;6.13;5.72;;;;;;;23.14;67.89;101363.69;6037367;23;20030;-74
2022/09/05 08:21:52;;;;;;;6.40;6.00;;;;;;;24.15;65.84;101521.97;6055424;23;20019;-75
2022/09/05 08:24:28;;;;;;;6.20;5.80;;;;;;;23.22;64.82;101370.00;6034176;23;20069;-75
2022/09/05 08:26:58;;;;;;;6.07;5.78;;;;;;;24.32;64.31;101506.94;6017208;23;20019;-75
2022/09/05 08:29:34;;;;;;;5.90;5.60;;;;;;;24.42;63.91;101511.22;6048958;23;20029;-75
2022/09/05 08:32:10;;;;;;;6.93;6.63;;;;;;;23.79;63.56;101426.16;6052418;23;20007;-76
2022/09/05 08:34:37;;;;;;;6.00;5.70;;;;;;;24.46;61.85;101506.41;6007774;23;20010;-76
2022/09/05 08:37:16;;;;;;;6.50;6.20;;;;;;;24.59;63.12;101509.59;6050147;23;20349;-76
2022/09/05 08:39:52;;;;;;;6.47;5.97;;;;;;;24.77;62.79;101506.06;6025121;23;20026;-75
2022/09/05 08:42:54;;;;;;;6.00;5.60;;;;;;;23.74;60.52;101339.16;6055847;23;20030;-77
2022/09/05 08:45:58;;;;;;;5.72;5.43;;;;;;;24.34;58.54;101403.00;6007358;23;20406;-78
2022/09/05 08:49:03;;;;;;;6.22;5.63;;;;;;;25.04;59.20;101500.59;6062995;23;20034;-76
2022/09/05 08:51:45;;;;;;;6.05;5.68;;;;;;;24.83;58.61;101444.53;6057218;23;20034;-73
2022/09/05 08:54:28;;;;;;;6.05;5.65;;;;;;;25.39;58.03;101490.81;6057975;23;20010;-72
2022/09/05 08:57:15;;;;;;;7.43;7.03;;;;;;;25.00;56.96;101407.94;6007523;23;20042;-75
2022/09/05 08:59:44;;;;;;;6.97;5.55;;;;;;;25.78;56.81;101487.69;6037456;23;20025;-78
2022/09/05 09:02:45;;;;;;;6.00;5.70;;;;;;;25.91;55.61;101494.50;6045381;23;20098;-74
2022/09/05 09:05:52;;;;;;;5.80;5.50;;;;;;;25.98;54.51;101500.91;6023749;23;20026;-75
2022/09/05 09:08:50;;;;;;;6.10;5.70;;;;;;;25.89;54.26;101494.63;6061653;23;20038;-74
2022/09/05 09:11:33;;;;;;;6.80;6.40;;;;;;;26.04;53.71;101486.81;6003887;23;20059;-75
2022/09/05 09:14:24;;;;;;;8.40;7.90;;;;;;;26.00;53.01;101491.69;6022328;23;20018;-76
2022/09/05 09:17:16;;;;;;;5.97;5.68;;;;;;;26.04;53.75;101497.56;6062636;23;20022;-74
2022/09/05 09:19:48;;;;;;;5.90;5.60;;;;;;;26.34;52.40;101490.78;6051136;23;20019;-75
2022/09/05 09:22:33;;;;;;;6.03;5.73;;;;;;;26.39;53.00;101485.75;6054847;23;20022;-77
2022/09/05 09:25:10;;;;;;;6.55;6.25;;;;;;;26.06;53.26;101407.66;6034975;23;20299;-73
2022/09/05 09:27:41;;;;;;;5.60;5.30;;;;;;;26.57;52.27;101480.22;6058514;23;20049;-74
2022/09/05 09:30:32;;;;;;;6.03;5.72;;;;;;;26.46;52.23;101432.94;6045325;23;20007;-75
2022/09/05 09:33:04;;;;;;;6.68;6.32;;;;;;;26.73;50.28;101481.28;6028908;23;20033;-74
2022/09/05 09:35:43;;;;;;;5.65;5.35;;;;;;;26.96;50.68;101484.13;6058825;23;20590;-75
2022/09/05 09:38:21;;;;;;;6.00;5.60;;;;;;;26.95;49.83;101486.00;6051059;23;20038;-77
2022/09/05 09:41:16;;;;;;;6.38;5.97;;;;;;;27.13;47.49;101482.31;6052788;23;20237;-74
2022/09/05 09:44:41;;;;;;;5.78;5.47;;;;;;;27.42;48.36;101471.84;6034766;23;20034;-74
2022/09/05 09:47:13;;;;;;;6.15;5.82;;;;;;;27.51;46.90;101485.31;5988343;23;20070;-77
2022/09/05 09:50:07;;;;;;;5.93;5.63;;;;;;;27.56;45.95;101483.75;6063049;23;20025;-76
2022/09/05 09:52:36;;;;;;;7.43;6.82;;;;;;;27.59;46.22;101475.31;6056159;23;20597;-75
2022/09/05 09:55:39;;;;;;;6.45;6.15;;;;;;;27.81;44.34;101471.03;6048883;23;20027;-75
2022/09/05 09:58:24;;;;;;;6.75;6.10;;;;;;;27.92;46.20;101474.38;6015159;23;20385;-75
2022/09/05 10:01:20;;;;;;;6.63;6.28;;;;;;;28.07;44.65;101471.81;6057547;23;20073;-75
2022/09/05 10:04:38;;;;;;;6.55;6.13;;;;;;;28.14;42.42;101476.28;6047492;23;20110;-75
2022/09/05 10:07:34;;;;;;;6.18;5.88;;;;;;;27.45;43.16;101352.88;6037579;23;20030;-76
2022/09/05 10:10:33;;;;;;;5.80;5.50;;;;;;;27.95;42.63;101474.88;6037925;23;20478;-74
2022/09/05 10:13:35;;;;;;;6.05;5.75;;;;;;;28.22;42.29;101467.31;6024792;23;20506;-76
2022/09/05 10:16:35;;;;;;;7.53;7.13;;;;;;;28.46;41.49;101471.72;6051825;23;21639;-75
2022/09/05 10:19:41;;;;;;;6.72;6.38;;;;;;;28.63;39.97;101472.50;6057831;23;20107;-74
2022/09/05 10:22:42;;;;;;;6.07;5.78;;;;;;;28.59;39.07;101472.00;6050864;23;20006;-74
2022/09/05 10:25:32;;;;;;;5.90;5.60;;;;;;;28.65;40.67;101462.34;6054243;23;20030;-73
2022/09/05 10:28:12;;;;;;;7.07;6.68;;;;;;;28.10;40.13;101337.34;6049964;23;20018;-73
2022/09/05 10:30:50;;;;;;;5.90;5.60;;;;;;;28.93;39.85;101464.50;6019972;23;20023;-74
2022/09/05 10:34:17;;;;;;;6.43;6.03;;;;;;;29.11;39.61;101465.03;6055532;23;20687;-74
2022/09/05 10:37:10;;;;;;;6.93;6.53;;;;;;;29.00;39.35;101427.59;6053444;23;20014;-75
2022/09/05 10:39:42;;;;;;;6.00;5.70;;;;;;;28.52;38.05;101322.50;6059759;23;20653;-74
2022/09/05 10:42:14;;;;;;;5.88;5.57;;;;;;;28.24;37.92;101231.31;6051592;23;20991;-76
2022/09/05 10:44:53;;;;;;;6.18;5.82;;;;;;;29.51;38.07;101416.06;6057064;23;20664;-74
2022/09/05 10:47:38;;;;;;;6.45;5.95;;;;;;;29.16;37.86;101350.94;6050154;23;20286;-76
2022/09/05 10:50:32;;;;;;;6.30;6.00;;;;;;;29.68;37.71;101460.84;6062156;23;20385;-75
2022/09/05 10:53:01;;;;;;;7.05;6.68;;;;;;;29.14;37.71;101339.47;6046832;23;20037;-75
2022/09/05 10:55:54;;;;;;;6.10;5.80;;;;;;;29.58;36.57;101468.41;6053818;23;20060;-75
2022/09/05 10:58:33;;;;;;;;;;;;;;;29.69;37.60;101464.38;6044271;23;20039;-75
2022/09/05 11:02:02;;;;;;;6.00;5.70;;;;;;;29.68;37.22;101460.84;6054280;23;19920;-75
2022/09/05 11:05:00;;;;;;;6.07;5.78;;;;;;;29.88;36.08;101460.31;6031418;23;20022;-74
2022/09/05 11:08:11;;;;;;;5.80;5.50;;;;;;;29.97;36.09;101459.16;6060921;23;20022;-74
2022/09/05 11:11:16;;;;;;;5.95;5.55;;;;;;;29.71;35.84;101456.91;6052560;23;20062;-73
2022/09/05 11:14:06;;;;;;;6.50;6.20;;;;;;;29.52;36.41;101458.34;6051287;23;20010;-76
2022/09/05 11:16:57;;;;;;;6.47;6.18;;;;;;;29.47;36.34;101409.38;6049798;23;20495;-76
2022/09/05 11:19:38;;;;;;;5.82;5.53;;;;;;;29.77;35.26;101470.59;6054115;23;20019;-73
2022/09/05 11:22:06;;;;;;;6.43;6.13;;;;;;;29.77;35.26;101402.94;6053202;23;20046;-74
2022/09/05 11:24:54;;;;;;;6.20;5.90;;;;;;;30.38;35.52;101436.94;6036553;23;20507;-73
2022/09/05 11:27:48;;;;;;;5.90;5.60;;;;;;;30.25;34.89;101450.31;6042177;23;20015;-75
2022/09/05 11:30:22;;;;;;;6.00;5.70;;;;;;;30.07;34.63;101443.47;6018793;23;20030;-74
2022/09/05 11:33:27;;;;;;;6.50;6.20;;;;;;;30.18;35.34;101447.53;6010446;23;20038;-74
2022/09/05 11:36:28;;;;;;;5.93;5.60;;;;;;;28.89;35.15;101261.38;6026592;23;20073;-72
2022/09/05 11:39:52;;;;;;;6.30;5.78;;;;;;;29.92;35.04;101456.19;6026110;23;20023;-72
2022/09/05 11:43:07;;;;;;;6.00;5.68;;;;;;;30.13;34.68;101448.13;6016202;23;20027;-74
2022/09/05 11:46:11;;;;;;;5.88;5.57;;;;;;;30.28;34.82;101452.66;5954724;23;20114;-74
2022/09/05 11:49:15;;;;;;;5.82;5.53;;;;;;;30.02;34.67;101462.13;5999030;23;20030;-75
2022/09/05 11:52:08;;;;;;;5.70;5.40;;;;;;;29.45;34.23;101341.97;6033115;23;20506;-74
2022/09/05 11:55:20;;;;;;;5.70;5.40;;;;;;;29.53;34.79;101322.06;6011289;23;20428;-74
2022/09/05 11:58:10;;;;;;;6.03;5.73;;;;;;;29.39;34.06;101248.91;6021613;23;20022;-74
2022/09/05 12:01:14;;;;;;;7.05;6.70;;;;;;;30.56;34.16;101450.03;5997025;23;20411;-74
2022/09/05 12:04:25;;;;;;;6.55;6.20;;;;;;;30.37;32.37;101428.00;6013122;23;20015;-74
2022/09/05 12:07:08;;;;;;;6.60;6.30;;;;;;;30.39;31.62;101465.69;6016509;23;20023;-76
2022/09/05 12:10:09;;;;;;;5.53;5.22;;;;;;;30.12;31.96;101451.84;6019369;23;20034;-73
2022/09/05 12:13:16;;;;;;;6.30;6.00;;;;;;;30.27;33.15;101413.91;6019656;23;20081;-74
2022/09/05 12:15:47;;;;;;;5.75;5.45;;;;;;;29.88;32.26;101335.81;6019930;23;20456;-77
2022/09/05 12:18:52;;;;;;;5.63;5.32;;;;;;;30.70;31.22;101454.53;6005738;23;20023;-74
2022/09/05 12:22:01;;;;;;;5.88;5.57;;;;;;;30.58;31.76;101451.50;6026990;23;20254;-76
2022/09/05 12:25:03;;;;;;;5.80;5.50;;;;;;;31.11;32.77;101453.88;6000075;23;20098;-73
2022/09/05 12:28:06;;;;;;;6.53;6.13;;;;;;;30.33;32.64;101321.09;6030245;23;20038;-74
2022/09/05 12:31:08;;;;;;;;;;;;;;;31.19;33.19;101451.00;5995548;23;20019;-74
2022/09/05 12:33:59;;;;;;;6.78;6.47;;;;;;;30.27;32.11;101297.47;6003360;23;19992;-74
2022/09/05 12:36:49;;;;;;;5.80;5.50;;;;;;;31.16;32.41;101447.84;6031629;23;20033;-78
2022/09/05 12:39:52;;;;;;;6.03;5.72;;;;;;;30.92;33.59;101374.06;6033265;23;20022;-75
2022/09/05 12:42:39;;;;;;;;;;;;;;;30.93;31.55;101456.22;6005405;23;20035;-76
2022/09/05 12:45:40;;;;;;;6.03;5.63;;;;;;;30.44;31.59;101419.09;6028149;23;20047;-76
2022/09/05 12:48:21;;;;;;;6.30;6.00;;;;;;;30.28;31.60;101406.63;6006097;23;20272;-75
2022/09/05 12:51:18;;;;;;;6.13;5.82;;;;;;;30.38;32.85;101429.66;6025156;23;20639;-75
2022/09/05 12:54:16;;;;;;;6.65;6.25;;;;;;;30.67;31.61;101437.84;5991919;23;20122;-78
2022/09/05 12:57:04;;;;;;;6.70;6.40;;;;;;;31.10;31.89;101454.06;6007565;23;20089;-77
2022/09/05 12:59:51;;;;;;;6.07;5.78;;;;;;;31.38;33.55;101435.88;6021116;23;20414;-76
2022/09/05 13:02:44;;;;;;;5.72;5.43;;;;;;;31.30;32.05;101448.78;5992440;23;20034;-74
2022/09/05 13:06:03;;;;;;;;;;;;;;;31.35;31.53;101447.16;6028459;23;20014;-74
2022/09/05 13:08:49;;;;;;;5.90;5.50;;;;;;;31.29;31.42;101447.09;5965798;23;19910;-72
2022/09/05 13:11:27;;;;;;;6.13;5.82;;;;;;;31.14;32.00;101458.88;6019535;23;20031;-74